sensor_id;sensor_type;location;lat;lon;timestamp;pressure;altitude;pressure_sealevel;temperature;humidity
68656;BME280;55638;51.122;13.606;2024-01-15T00:00:18;98368.09;;;1.36;59.91
68656;BME280;55638;51.122;13.606;2024-01-15T00:01:50;98376.91;;;1.37;59.77
68656;BME280;55638;51.122;13.606;2024-01-15T00:03:22;98375.22;;;1.36;59.56
68656;BME280;55638;51.122;13.606;2024-01-15T00:04:54;98366.28;;;1.37;59.86
68656;BME280;55638;51.122;13.606;2024-01-15T00:06:26;98356.53;;;1.37;59.70
68656;BME280;55638;51.122;13.606;2024-01-15T00:08:00;98369.81;;;1.37;59.70
68656;BME280;55638;51.122;13.606;2024-01-15T00:09:32;98358.31;;;1.37;59.57
68656;BME280;55638;51.122;13.606;2024-01-15T00:11:04;98356.63;;;1.36;59.56
68656;BME280;55638;51.122;13.606;2024-01-15T00:12:36;98352.16;;;1.36;59.65
68656;BME280;55638;51.122;13.606;2024-01-15T00:14:08;98342.28;;;1.38;59.79
68656;BME280;55638;51.122;13.606;2024-01-15T00:15:40;98346.00;;;1.36;59.64
68656;BME280;55638;51.122;13.606;2024-01-15T00:17:12;98349.50;;;1.36;59.70
68656;BME280;55638;51.122;13.606;2024-01-15T00:18:44;98344.19;;;1.36;59.62
68656;BME280;55638;51.122;13.606;2024-01-15T00:20:16;98360.97;;;1.37;59.30
68656;BME280;55638;51.122;13.606;2024-01-15T00:21:48;98337.94;;;1.37;59.71
68656;BME280;55638;51.122;13.606;2024-01-15T00:23:20;98341.69;;;1.35;59.57
68656;BME280;55638;51.122;13.606;2024-01-15T00:24:52;98349.50;;;1.36;59.56
68656;BME280;55638;51.122;13.606;2024-01-15T00:26:24;98342.38;;;1.37;59.57
68656;BME280;55638;51.122;13.606;2024-01-15T00:27:56;98344.19;;;1.36;59.43
68656;BME280;55638;51.122;13.606;2024-01-15T00:29:28;98336.38;;;1.35;59.43
68656;BME280;55638;51.122;13.606;2024-01-15T00:30:59;98335.63;;;1.32;59.30
68656;BME280;55638;51.122;13.606;2024-01-15T00:32:31;98339.88;;;1.35;59.58
68656;BME280;55638;51.122;13.606;2024-01-15T00:34:03;98334.91;;;1.30;59.46
68656;BME280;55638;51.122;13.606;2024-01-15T00:35:35;98334.03;;;1.30;59.45
68656;BME280;55638;51.122;13.606;2024-01-15T00:37:07;98335.84;;;1.29;59.45
68656;BME280;55638;51.122;13.606;2024-01-15T00:38:39;98338.50;;;1.29;59.63
68656;BME280;55638;51.122;13.606;2024-01-15T00:40:11;98337.66;;;1.29;59.53
68656;BME280;55638;51.122;13.606;2024-01-15T00:41:43;98326.06;;;1.30;59.48
68656;BME280;55638;51.122;13.606;2024-01-15T00:43:15;98334.03;;;1.30;59.37
68656;BME280;55638;51.122;13.606;2024-01-15T00:44:49;98325.38;;;1.28;59.18
68656;BME280;55638;51.122;13.606;2024-01-15T00:46:21;98316.44;;;1.29;59.62
68656;BME280;55638;51.122;13.606;2024-01-15T00:47:53;98323.44;;;1.30;59.61
68656;BME280;55638;51.122;13.606;2024-01-15T00:49:28;98330.53;;;1.29;59.26
68656;BME280;55638;51.122;13.606;2024-01-15T00:51:00;98325.38;;;1.28;59.30
68656;BME280;55638;51.122;13.606;2024-01-15T00:52:32;98308.69;;;1.26;59.27
68656;BME280;55638;51.122;13.606;2024-01-15T00:54:04;98314.97;;;1.25;59.11
68656;BME280;55638;51.122;13.606;2024-01-15T00:55:36;98318.56;;;1.24;59.10
68656;BME280;55638;51.122;13.606;2024-01-15T00:57:09;98305.31;;;1.24;59.25
68656;BME280;55638;51.122;13.606;2024-01-15T00:58:41;98314.38;;;1.21;59.18
68656;BME280;55638;51.122;13.606;2024-01-15T01:00:13;98305.66;;;1.19;59.27
68656;BME280;55638;51.122;13.606;2024-01-15T01:01:45;98306.72;;;1.17;59.11
68656;BME280;55638;51.122;13.606;2024-01-15T01:03:17;98313.00;;;1.16;59.19
68656;BME280;55638;51.122;13.606;2024-01-15T01:04:49;98301.66;;;1.14;59.30
68656;BME280;55638;51.122;13.606;2024-01-15T01:06:21;98305.28;;;1.13;59.09
68656;BME280;55638;51.122;13.606;2024-01-15T01:07:53;98314.06;;;1.13;59.53
68656;BME280;55638;51.122;13.606;2024-01-15T01:09:25;98303.59;;;1.12;59.13
68656;BME280;55638;51.122;13.606;2024-01-15T01:10:57;98293.19;;;1.08;59.26
68656;BME280;55638;51.122;13.606;2024-01-15T01:12:29;98295.13;;;1.06;59.32
68656;BME280;55638;51.122;13.606;2024-01-15T01:14:01;98285.47;;;1.05;59.20
68656;BME280;55638;51.122;13.606;2024-01-15T01:15:33;98287.38;;;1.03;59.29
68656;BME280;55638;51.122;13.606;2024-01-15T01:17:05;98297.16;;;1.03;59.19
68656;BME280;55638;51.122;13.606;2024-01-15T01:18:37;98287.75;;;0.99;59.00
68656;BME280;55638;51.122;13.606;2024-01-15T01:20:09;98297.50;;;0.98;59.07
68656;BME280;55638;51.122;13.606;2024-01-15T01:21:45;98282.75;;;0.94;59.07
68656;BME280;55638;51.122;13.606;2024-01-15T01:23:17;98280.09;;;0.94;59.19
68656;BME280;55638;51.122;13.606;2024-01-15T01:24:49;98276.59;;;0.94;59.46
68656;BME280;55638;51.122;13.606;2024-01-15T01:26:21;98274.78;;;0.94;59.45
68656;BME280;55638;51.122;13.606;2024-01-15T01:27:53;98275.00;;;0.91;59.44
68656;BME280;55638;51.122;13.606;2024-01-15T01:29:25;98281.25;;;0.90;59.38
68656;BME280;55638;51.122;13.606;2024-01-15T01:30:58;98280.28;;;0.91;59.56
68656;BME280;55638;51.122;13.606;2024-01-15T01:32:30;98272.47;;;0.90;59.27
68656;BME280;55638;51.122;13.606;2024-01-15T01:34:01;98280.44;;;0.90;59.59
68656;BME280;55638;51.122;13.606;2024-01-15T01:35:33;98269.06;;;0.88;59.47
68656;BME280;55638;51.122;13.606;2024-01-15T01:37:05;98266.31;;;0.89;59.67
68656;BME280;55638;51.122;13.606;2024-01-15T01:38:37;98261.97;;;0.88;59.72
68656;BME280;55638;51.122;13.606;2024-01-15T01:40:10;98270.88;;;0.87;59.54
68656;BME280;55638;51.122;13.606;2024-01-15T01:41:42;98272.69;;;0.86;59.58
68656;BME280;55638;51.122;13.606;2024-01-15T01:43:14;98278.84;;;0.87;59.61
68656;BME280;55638;51.122;13.606;2024-01-15T01:44:46;98285.81;;;0.88;59.78
68656;BME280;55638;51.122;13.606;2024-01-15T01:46:18;98279.69;;;0.88;59.71
68656;BME280;55638;51.122;13.606;2024-01-15T01:47:50;98275.13;;;0.90;59.55
68656;BME280;55638;51.122;13.606;2024-01-15T01:49:23;98273.31;;;0.90;59.57
68656;BME280;55638;51.122;13.606;2024-01-15T01:50:58;98276.94;;;0.89;59.52
68656;BME280;55638;51.122;13.606;2024-01-15T01:52:31;98274.16;;;0.91;59.51
68656;BME280;55638;51.122;13.606;2024-01-15T01:54:04;98273.22;;;0.92;59.42
68656;BME280;55638;51.122;13.606;2024-01-15T01:55:38;98282.00;;;0.92;59.47
68656;BME280;55638;51.122;13.606;2024-01-15T01:57:10;98263.53;;;0.91;59.43
68656;BME280;55638;51.122;13.606;2024-01-15T01:58:44;98263.44;;;0.92;59.48
68656;BME280;55638;51.122;13.606;2024-01-15T02:00:17;98269.69;;;0.91;59.60
68656;BME280;55638;51.122;13.606;2024-01-15T02:01:50;98267.81;;;0.93;59.44
68656;BME280;55638;51.122;13.606;2024-01-15T02:03:22;98262.59;;;0.92;59.46
68656;BME280;55638;51.122;13.606;2024-01-15T02:04:54;98271.31;;;0.94;59.51
68656;BME280;55638;51.122;13.606;2024-01-15T02:06:26;98262.50;;;0.93;59.36
68656;BME280;55638;51.122;13.606;2024-01-15T02:07:59;98257.19;;;0.93;59.37
68656;BME280;55638;51.122;13.606;2024-01-15T02:09:31;98257.94;;;0.95;59.62
68656;BME280;55638;51.122;13.606;2024-01-15T02:11:04;98258.88;;;0.94;59.23
68656;BME280;55638;51.122;13.606;2024-01-15T02:12:35;98259.63;;;0.96;59.47
68656;BME280;55638;51.122;13.606;2024-01-15T02:14:08;98253.47;;;0.96;59.26
68656;BME280;55638;51.122;13.606;2024-01-15T02:15:40;98247.94;;;0.99;59.36
68656;BME280;55638;51.122;13.606;2024-01-15T02:17:12;98265.78;;;0.97;59.14
68656;BME280;55638;51.122;13.606;2024-01-15T02:18:45;98255.06;;;0.98;59.18
68656;BME280;55638;51.122;13.606;2024-01-15T02:20:18;98261.44;;;0.96;59.03
68656;BME280;55638;51.122;13.606;2024-01-15T02:21:50;98249.00;;;0.96;59.02
68656;BME280;55638;51.122;13.606;2024-01-15T02:23:22;98246.59;;;0.93;59.06
68656;BME280;55638;51.122;13.606;2024-01-15T02:24:54;98255.28;;;0.95;59.00
68656;BME280;55638;51.122;13.606;2024-01-15T02:26:26;98236.72;;;0.95;58.63
68656;BME280;55638;51.122;13.606;2024-01-15T02:27:58;98241.06;;;0.96;59.01
68656;BME280;55638;51.122;13.606;2024-01-15T02:29:30;98247.34;;;0.95;58.92
68656;BME280;55638;51.122;13.606;2024-01-15T02:31:02;98233.22;;;0.95;58.85
68656;BME280;55638;51.122;13.606;2024-01-15T02:32:34;98235.00;;;0.94;59.08
68656;BME280;55638;51.122;13.606;2024-01-15T02:34:06;98226.13;;;0.95;59.31
68656;BME280;55638;51.122;13.606;2024-01-15T02:35:38;98234.06;;;0.95;59.06
68656;BME280;55638;51.122;13.606;2024-01-15T02:37:10;98234.16;;;0.94;58.76
68656;BME280;55638;51.122;13.606;2024-01-15T02:38:42;98233.31;;;0.93;58.98
68656;BME280;55638;51.122;13.606;2024-01-15T02:40:13;98223.47;;;0.95;59.00
68656;BME280;55638;51.122;13.606;2024-01-15T02:41:45;98224.53;;;0.93;59.15
68656;BME280;55638;51.122;13.606;2024-01-15T02:43:17;98228.03;;;0.93;59.05
68656;BME280;55638;51.122;13.606;2024-01-15T02:44:51;98220.06;;;0.93;59.16
68656;BME280;55638;51.122;13.606;2024-01-15T02:46:22;98229.91;;;0.91;58.94
68656;BME280;55638;51.122;13.606;2024-01-15T02:47:54;98228.13;;;0.92;58.98
68656;BME280;55638;51.122;13.606;2024-01-15T02:49:27;98221.00;;;0.92;59.13
68656;BME280;55638;51.122;13.606;2024-01-15T02:50:59;98226.53;;;0.89;58.81
68656;BME280;55638;51.122;13.606;2024-01-15T02:52:30;98230.88;;;0.90;58.96
68656;BME280;55638;51.122;13.606;2024-01-15T02:54:02;98214.97;;;0.90;59.06
68656;BME280;55638;51.122;13.606;2024-01-15T02:55:35;98230.03;;;0.90;58.87
68656;BME280;55638;51.122;13.606;2024-01-15T02:57:07;98216.88;;;0.88;59.02
68656;BME280;55638;51.122;13.606;2024-01-15T02:58:38;98217.84;;;0.87;58.69
68656;BME280;55638;51.122;13.606;2024-01-15T03:00:11;98211.56;;;0.88;58.81
68656;BME280;55638;51.122;13.606;2024-01-15T03:01:43;98211.56;;;0.88;59.09
68656;BME280;55638;51.122;13.606;2024-01-15T03:03:15;98203.59;;;0.88;58.95
68656;BME280;55638;51.122;13.606;2024-01-15T03:04:47;98214.34;;;0.86;58.78
68656;BME280;55638;51.122;13.606;2024-01-15T03:06:19;98227.47;;;0.88;58.80
68656;BME280;55638;51.122;13.606;2024-01-15T03:07:51;98217.97;;;0.85;58.76
68656;BME280;55638;51.122;13.606;2024-01-15T03:09:23;98218.91;;;0.84;58.71
68656;BME280;55638;51.122;13.606;2024-01-15T03:10:55;98217.97;;;0.85;58.95
68656;BME280;55638;51.122;13.606;2024-01-15T03:12:27;98220.63;;;0.85;58.75
68656;BME280;55638;51.122;13.606;2024-01-15T03:13:59;98221.47;;;0.86;59.02
68656;BME280;55638;51.122;13.606;2024-01-15T03:15:31;98218.81;;;0.86;59.09
68656;BME280;55638;51.122;13.606;2024-01-15T03:17:03;98221.47;;;0.86;58.78
68656;BME280;55638;51.122;13.606;2024-01-15T03:18:35;98223.28;;;0.85;58.96
68656;BME280;55638;51.122;13.606;2024-01-15T03:20:08;98205.53;;;0.86;58.90
68656;BME280;55638;51.122;13.606;2024-01-15T03:21:40;98210.94;;;0.84;58.21
68656;BME280;55638;51.122;13.606;2024-01-15T03:23:12;98215.19;;;0.87;58.43
68656;BME280;55638;51.122;13.606;2024-01-15T03:24:44;98216.03;;;0.88;58.50
68656;BME280;55638;51.122;13.606;2024-01-15T03:26:16;98208.06;;;0.88;58.53
68656;BME280;55638;51.122;13.606;2024-01-15T03:27:48;98215.19;;;0.87;58.48
68656;BME280;55638;51.122;13.606;2024-01-15T03:29:20;98231.22;;;0.85;58.35
68656;BME280;55638;51.122;13.606;2024-01-15T03:30:52;98216.03;;;0.88;58.54
68656;BME280;55638;51.122;13.606;2024-01-15T03:32:24;98230.13;;;0.88;58.67
68656;BME280;55638;51.122;13.606;2024-01-15T03:33:56;98231.84;;;0.89;58.49
68656;BME280;55638;51.122;13.606;2024-01-15T03:35:28;98228.34;;;0.89;58.32
68656;BME280;55638;51.122;13.606;2024-01-15T03:37:02;98230.13;;;0.88;58.30
68656;BME280;55638;51.122;13.606;2024-01-15T03:38:40;98231.84;;;0.89;58.18
68656;BME280;55638;51.122;13.606;2024-01-15T03:40:12;98235.44;;;0.88;58.39
68656;BME280;55638;51.122;13.606;2024-01-15T03:41:44;98231.94;;;0.88;58.22
68656;BME280;55638;51.122;13.606;2024-01-15T03:43:16;98233.53;;;0.90;58.07
68656;BME280;55638;51.122;13.606;2024-01-15T03:44:48;98223.88;;;0.89;57.82
68656;BME280;55638;51.122;13.606;2024-01-15T03:46:20;98237.16;;;0.89;57.89
68656;BME280;55638;51.122;13.606;2024-01-15T03:47:52;98235.44;;;0.88;57.75
68656;BME280;55638;51.122;13.606;2024-01-15T03:49:24;98230.13;;;0.88;58.06
68656;BME280;55638;51.122;13.606;2024-01-15T03:50:56;98241.59;;;0.89;58.04
68656;BME280;55638;51.122;13.606;2024-01-15T03:52:28;98229.28;;;0.88;58.08
68656;BME280;55638;51.122;13.606;2024-01-15T03:54:00;98232.16;;;0.84;57.89
68656;BME280;55638;51.122;13.606;2024-01-15T03:55:32;98241.94;;;0.84;57.54
68656;BME280;55638;51.122;13.606;2024-01-15T03:57:04;98232.06;;;0.86;57.81
68656;BME280;55638;51.122;13.606;2024-01-15T03:58:36;98231.09;;;0.87;57.71
68656;BME280;55638;51.122;13.606;2024-01-15T04:00:09;98227.00;;;0.83;57.75
68656;BME280;55638;51.122;13.606;2024-01-15T04:01:41;98232.41;;;0.81;57.69
68656;BME280;55638;51.122;13.606;2024-01-15T04:03:13;98233.50;;;0.79;57.73
68656;BME280;55638;51.122;13.606;2024-01-15T04:04:44;98223.94;;;0.76;57.30
68656;BME280;55638;51.122;13.606;2024-01-15T04:06:17;98233.72;;;0.76;57.41
68656;BME280;55638;51.122;13.606;2024-01-15T04:07:48;98241.66;;;0.76;57.36
68656;BME280;55638;51.122;13.606;2024-01-15T04:09:21;98229.56;;;0.72;57.66
68656;BME280;55638;51.122;13.606;2024-01-15T04:10:52;98230.56;;;0.71;57.70
68656;BME280;55638;51.122;13.606;2024-01-15T04:12:24;98227.28;;;0.67;57.69
68656;BME280;55638;51.122;13.606;2024-01-15T04:13:56;98223.78;;;0.67;57.91
68656;BME280;55638;51.122;13.606;2024-01-15T04:15:28;98214.03;;;0.67;57.81
68656;BME280;55638;51.122;13.606;2024-01-15T04:17:00;98220.41;;;0.65;57.70
68656;BME280;55638;51.122;13.606;2024-01-15T04:18:32;98217.03;;;0.62;57.68
68656;BME280;55638;51.122;13.606;2024-01-15T04:20:05;98234.00;;;0.60;57.50
68656;BME280;55638;51.122;13.606;2024-01-15T04:21:37;98230.50;;;0.59;57.47
68656;BME280;55638;51.122;13.606;2024-01-15T04:23:09;98222.56;;;0.59;57.56
68656;BME280;55638;51.122;13.606;2024-01-15T04:24:41;98239.41;;;0.58;57.53
68656;BME280;55638;51.122;13.606;2024-01-15T04:26:13;98241.22;;;0.58;57.58
68656;BME280;55638;51.122;13.606;2024-01-15T04:27:45;98225.53;;;0.55;57.35
68656;BME280;55638;51.122;13.606;2024-01-15T04:29:16;98219.38;;;0.54;57.59
68656;BME280;55638;51.122;13.606;2024-01-15T04:30:48;98218.53;;;0.54;57.61
68656;BME280;55638;51.122;13.606;2024-01-15T04:32:20;98218.53;;;0.54;57.76
68656;BME280;55638;51.122;13.606;2024-01-15T04:33:52;98238.91;;;0.53;57.75
68656;BME280;55638;51.122;13.606;2024-01-15T04:35:24;98223.84;;;0.54;57.65
68656;BME280;55638;51.122;13.606;2024-01-15T04:36:56;98228.31;;;0.53;57.63
68656;BME280;55638;51.122;13.606;2024-01-15T04:38:28;98232.78;;;0.53;57.85
68656;BME280;55638;51.122;13.606;2024-01-15T04:40:00;98233.59;;;0.53;57.47
68656;BME280;55638;51.122;13.606;2024-01-15T04:41:33;98227.56;;;0.51;57.48
68656;BME280;55638;51.122;13.606;2024-01-15T04:43:05;98234.69;;;0.51;57.47
68656;BME280;55638;51.122;13.606;2024-01-15T04:44:37;98248.91;;;0.50;57.37
68656;BME280;55638;51.122;13.606;2024-01-15T04:46:09;98245.50;;;0.48;57.41
68656;BME280;55638;51.122;13.606;2024-01-15T04:47:41;98236.81;;;0.46;57.49
68656;BME280;55638;51.122;13.606;2024-01-15T04:49:14;98241.38;;;0.44;57.22
68656;BME280;55638;51.122;13.606;2024-01-15T04:50:46;98253.06;;;0.41;57.31
68656;BME280;55638;51.122;13.606;2024-01-15T04:52:18;98241.72;;;0.39;57.28
68656;BME280;55638;51.122;13.606;2024-01-15T04:53:49;98241.94;;;0.36;56.98
68656;BME280;55638;51.122;13.606;2024-01-15T04:55:21;98220.09;;;0.32;56.76
68656;BME280;55638;51.122;13.606;2024-01-15T04:56:53;98245.16;;;0.28;57.01
68656;BME280;55638;51.122;13.606;2024-01-15T04:58:25;98239.34;;;0.23;56.58
68656;BME280;55638;51.122;13.606;2024-01-15T04:59:59;98238.69;;;0.20;56.92
68656;BME280;55638;51.122;13.606;2024-01-15T05:01:34;98240.63;;;0.18;56.30
68656;BME280;55638;51.122;13.606;2024-01-15T05:03:06;98245.41;;;0.12;57.10
68656;BME280;55638;51.122;13.606;2024-01-15T05:04:38;98242.25;;;0.07;56.87
68656;BME280;55638;51.122;13.606;2024-01-15T05:06:10;98242.47;;;0.04;57.20
68656;BME280;55638;51.122;13.606;2024-01-15T05:07:42;98239.28;;;-0.01;57.19
68656;BME280;55638;51.122;13.606;2024-01-15T05:09:13;98240.47;;;-0.05;57.28
68656;BME280;55638;51.122;13.606;2024-01-15T05:10:45;98247.78;;;-0.09;57.26
68656;BME280;55638;51.122;13.606;2024-01-15T05:12:17;98232.09;;;-0.12;57.39
68656;BME280;55638;51.122;13.606;2024-01-15T05:13:49;98246.41;;;-0.14;57.62
68656;BME280;55638;51.122;13.606;2024-01-15T05:15:21;98240.47;;;-0.18;57.30
68656;BME280;55638;51.122;13.606;2024-01-15T05:16:53;98240.34;;;-0.16;57.64
68656;BME280;55638;51.122;13.606;2024-01-15T05:18:25;98232.53;;;-0.18;57.58
68656;BME280;55638;51.122;13.606;2024-01-15T05:19:57;98249.28;;;-0.17;58.06
68656;BME280;55638;51.122;13.606;2024-01-15T05:21:29;98244.72;;;-0.15;58.28
68656;BME280;55638;51.122;13.606;2024-01-15T05:23:01;98244.81;;;-0.17;58.12
68656;BME280;55638;51.122;13.606;2024-01-15T05:24:33;98236.78;;;-0.15;58.23
68656;BME280;55638;51.122;13.606;2024-01-15T05:26:05;98238.34;;;-0.13;58.23
68656;BME280;55638;51.122;13.606;2024-01-15T05:27:37;98239.22;;;-0.12;57.87
68656;BME280;55638;51.122;13.606;2024-01-15T05:29:09;98238.25;;;-0.11;57.92
68656;BME280;55638;51.122;13.606;2024-01-15T05:30:41;98233.69;;;-0.09;58.02
68656;BME280;55638;51.122;13.606;2024-01-15T05:32:13;98240.78;;;-0.10;57.71
68656;BME280;55638;51.122;13.606;2024-01-15T05:33:45;98229.13;;;-0.07;57.64
68656;BME280;55638;51.122;13.606;2024-01-15T05:35:17;98238.88;;;-0.08;57.74
68656;BME280;55638;51.122;13.606;2024-01-15T05:36:49;98231.16;;;-0.11;57.31
68656;BME280;55638;51.122;13.606;2024-01-15T05:38:21;98254.00;;;-0.10;57.59
68656;BME280;55638;51.122;13.606;2024-01-15T05:39:53;98241.84;;;-0.12;57.26
68656;BME280;55638;51.122;13.606;2024-01-15T05:41:25;98259.53;;;-0.13;57.37
68656;BME280;55638;51.122;13.606;2024-01-15T05:42:57;98256.88;;;-0.13;57.75
68656;BME280;55638;51.122;13.606;2024-01-15T05:44:29;98259.66;;;-0.14;57.66
68656;BME280;55638;51.122;13.606;2024-01-15T05:46:01;98252.53;;;-0.14;57.81
68656;BME280;55638;51.122;13.606;2024-01-15T05:47:33;98231.97;;;-0.10;58.00
68656;BME280;55638;51.122;13.606;2024-01-15T05:49:05;98246.81;;;-0.08;58.17
68656;BME280;55638;51.122;13.606;2024-01-15T05:50:38;98245.00;;;-0.07;58.16
68656;BME280;55638;51.122;13.606;2024-01-15T05:52:10;98254.53;;;-0.04;58.04
68656;BME280;55638;51.122;13.606;2024-01-15T05:53:41;98251.69;;;-0.01;58.15
68656;BME280;55638;51.122;13.606;2024-01-15T05:55:15;98243.53;;;0.02;58.06
68656;BME280;55638;51.122;13.606;2024-01-15T05:56:47;98251.34;;;0.03;58.05
68656;BME280;55638;51.122;13.606;2024-01-15T05:58:19;98252.84;;;0.07;58.07
68656;BME280;55638;51.122;13.606;2024-01-15T05:59:51;98245.63;;;0.09;57.47
68656;BME280;55638;51.122;13.606;2024-01-15T06:01:23;98242.88;;;0.11;57.66
68656;BME280;55638;51.122;13.606;2024-01-15T06:02:55;98240.22;;;0.11;57.24
68656;BME280;55638;51.122;13.606;2024-01-15T06:04:27;98245.31;;;0.14;57.63
68656;BME280;55638;51.122;13.606;2024-01-15T06:05:59;98241.69;;;0.15;57.51
68656;BME280;55638;51.122;13.606;2024-01-15T06:07:32;98233.53;;;0.18;57.54
68656;BME280;55638;51.122;13.606;2024-01-15T06:09:03;98242.31;;;0.19;57.21
68656;BME280;55638;51.122;13.606;2024-01-15T06:10:37;98221.88;;;0.21;57.47
68656;BME280;55638;51.122;13.606;2024-01-15T06:12:09;98249.19;;;0.21;57.29
68656;BME280;55638;51.122;13.606;2024-01-15T06:13:41;98238.59;;;0.21;57.34
68656;BME280;55638;51.122;13.606;2024-01-15T06:15:13;98234.88;;;0.24;57.48
68656;BME280;55638;51.122;13.606;2024-01-15T06:16:45;98226.94;;;0.24;57.24
68656;BME280;55638;51.122;13.606;2024-01-15T06:18:17;98229.59;;;0.24;57.41
68656;BME280;55638;51.122;13.606;2024-01-15T06:19:49;98237.31;;;0.27;57.06
68656;BME280;55638;51.122;13.606;2024-01-15T06:21:21;98216.13;;;0.27;57.21
68656;BME280;55638;51.122;13.606;2024-01-15T06:22:53;98224.06;;;0.27;57.33
68656;BME280;55638;51.122;13.606;2024-01-15T06:24:25;98220.53;;;0.26;57.13
68656;BME280;55638;51.122;13.606;2024-01-15T06:25:57;98226.50;;;0.30;57.22
68656;BME280;55638;51.122;13.606;2024-01-15T06:27:29;98217.59;;;0.31;57.08
68656;BME280;55638;51.122;13.606;2024-01-15T06:29:01;98217.59;;;0.31;57.34
68656;BME280;55638;51.122;13.606;2024-01-15T06:30:34;98212.38;;;0.29;57.09
68656;BME280;55638;51.122;13.606;2024-01-15T06:32:07;98223.72;;;0.31;56.81
68656;BME280;55638;51.122;13.606;2024-01-15T06:33:38;98224.56;;;0.32;56.90
68656;BME280;55638;51.122;13.606;2024-01-15T06:35:11;98212.91;;;0.34;56.98
68656;BME280;55638;51.122;13.606;2024-01-15T06:36:43;98212.91;;;0.34;57.13
68656;BME280;55638;51.122;13.606;2024-01-15T06:38:15;98213.00;;;0.33;56.63
68656;BME280;55638;51.122;13.606;2024-01-15T06:39:47;98203.97;;;0.35;56.72
68656;BME280;55638;51.122;13.606;2024-01-15T06:41:19;98203.28;;;0.33;56.61
68656;BME280;55638;51.122;13.606;2024-01-15T06:42:51;98207.69;;;0.33;56.79
68656;BME280;55638;51.122;13.606;2024-01-15T06:44:23;98206.84;;;0.32;56.69
68656;BME280;55638;51.122;13.606;2024-01-15T06:45:55;98212.06;;;0.34;56.73
68656;BME280;55638;51.122;13.606;2024-01-15T06:47:27;98204.13;;;0.34;56.77
68656;BME280;55638;51.122;13.606;2024-01-15T06:48:59;98207.59;;;0.34;56.78
68656;BME280;55638;51.122;13.606;2024-01-15T06:50:31;98207.59;;;0.34;56.62
68656;BME280;55638;51.122;13.606;2024-01-15T06:52:03;98210.25;;;0.34;57.03
68656;BME280;55638;51.122;13.606;2024-01-15T06:53:35;98206.13;;;0.30;56.38
68656;BME280;55638;51.122;13.606;2024-01-15T06:55:07;98197.22;;;0.31;56.16
68656;BME280;55638;51.122;13.606;2024-01-15T06:56:39;98203.38;;;0.32;56.48
68656;BME280;55638;51.122;13.606;2024-01-15T06:58:13;98211.09;;;0.35;56.55
68656;BME280;55638;51.122;13.606;2024-01-15T06:59:45;98200.50;;;0.35;56.74
68656;BME280;55638;51.122;13.606;2024-01-15T07:01:17;98222.66;;;0.34;56.64
68656;BME280;55638;51.122;13.606;2024-01-15T07:02:49;98215.66;;;0.33;56.57
68656;BME280;55638;51.122;13.606;2024-01-15T07:04:21;98209.50;;;0.32;56.63
68656;BME280;55638;51.122;13.606;2024-01-15T07:05:53;98216.53;;;0.33;56.79
68656;BME280;55638;51.122;13.606;2024-01-15T07:07:24;98210.34;;;0.33;56.59
68656;BME280;55638;51.122;13.606;2024-01-15T07:09:00;98215.78;;;0.31;56.45
68656;BME280;55638;51.122;13.606;2024-01-15T07:10:32;98215.66;;;0.33;56.64
68656;BME280;55638;51.122;13.606;2024-01-15T07:12:07;98222.66;;;0.34;56.75
68656;BME280;55638;51.122;13.606;2024-01-15T07:13:39;98224.34;;;0.35;56.75
68656;BME280;55638;51.122;13.606;2024-01-15T07:15:11;98234.94;;;0.35;56.82
68656;BME280;55638;51.122;13.606;2024-01-15T07:16:43;98229.41;;;0.38;56.66
68656;BME280;55638;51.122;13.606;2024-01-15T07:18:19;98245.31;;;0.38;56.60
68656;BME280;55638;51.122;13.606;2024-01-15T07:19:51;98239.94;;;0.39;56.68
68656;BME280;55638;51.122;13.606;2024-01-15T07:21:23;98239.94;;;0.39;56.81
68656;BME280;55638;51.122;13.606;2024-01-15T07:22:55;98245.22;;;0.39;56.49
68656;BME280;55638;51.122;13.606;2024-01-15T07:24:26;98236.41;;;0.39;56.59
68656;BME280;55638;51.122;13.606;2024-01-15T07:25:59;98239.81;;;0.41;56.53
68656;BME280;55638;51.122;13.606;2024-01-15T07:27:31;98241.47;;;0.42;56.69
68656;BME280;55638;51.122;13.606;2024-01-15T07:29:04;98249.34;;;0.44;56.34
68656;BME280;55638;51.122;13.606;2024-01-15T07:30:35;98248.59;;;0.42;56.47
68656;BME280;55638;51.122;13.606;2024-01-15T07:32:10;98234.50;;;0.41;56.32
68656;BME280;55638;51.122;13.606;2024-01-15T07:33:42;98240.88;;;0.38;55.95
68656;BME280;55638;51.122;13.606;2024-01-15T07:35:14;98230.16;;;0.40;56.31
68656;BME280;55638;51.122;13.606;2024-01-15T07:36:47;98246.16;;;0.38;56.32
68656;BME280;55638;51.122;13.606;2024-01-15T07:38:18;98243.63;;;0.37;56.22
68656;BME280;55638;51.122;13.606;2024-01-15T07:39:50;98248.09;;;0.36;56.36
68656;BME280;55638;51.122;13.606;2024-01-15T07:41:22;98248.94;;;0.37;56.48
68656;BME280;55638;51.122;13.606;2024-01-15T07:42:55;98238.34;;;0.37;56.46
68656;BME280;55638;51.122;13.606;2024-01-15T07:44:27;98236.84;;;0.33;55.91
68656;BME280;55638;51.122;13.606;2024-01-15T07:45:59;98238.44;;;0.35;56.37
68656;BME280;55638;51.122;13.606;2024-01-15T07:47:31;98254.47;;;0.34;56.34
68656;BME280;55638;51.122;13.606;2024-01-15T07:49:03;98250.00;;;0.34;56.21
68656;BME280;55638;51.122;13.606;2024-01-15T07:50:37;98235.91;;;0.34;56.24
68656;BME280;55638;51.122;13.606;2024-01-15T07:52:09;98246.50;;;0.34;56.13
68656;BME280;55638;51.122;13.606;2024-01-15T07:53:41;98246.59;;;0.32;56.13
68656;BME280;55638;51.122;13.606;2024-01-15T07:55:13;98256.16;;;0.35;56.25
68656;BME280;55638;51.122;13.606;2024-01-15T07:56:59;98242.16;;;0.33;55.85
68656;BME280;55638;51.122;13.606;2024-01-15T07:58:31;98243.72;;;0.35;56.09
68656;BME280;55638;51.122;13.606;2024-01-15T08:00:03;98248.09;;;0.36;56.18
68656;BME280;55638;51.122;13.606;2024-01-15T08:01:36;98247.34;;;0.34;56.16
68656;BME280;55638;51.122;13.606;2024-01-15T08:03:08;98249.88;;;0.36;56.09
68656;BME280;55638;51.122;13.606;2024-01-15T08:04:40;98244.47;;;0.37;56.19
68656;BME280;55638;51.122;13.606;2024-01-15T08:06:12;98241.84;;;0.37;56.23
68656;BME280;55638;51.122;13.606;2024-01-15T08:07:45;98254.25;;;0.37;56.02